| time (UTC) | temp F | wind direction | speed knots | gust knots | rain 1hr in | rain 24hr in | rain mn in | humidity % | barometer mb |
| 20260509064507 | 63 | 134 | 0.9 | 2.6 | 0.00 | 0.00 | 0.00 | 84 | 1012.2 |
| 20260509064007 | 63 | 129 | 0.9 | 2.6 | 0.00 | 0.00 | 0.00 | 84 | 1012.3 |
| 20260509063506 | 64 | 132 | 1.7 | 2.6 | 0.00 | 0.00 | 0.00 | 83 | 1012.4 |
| 20260509063006 | 64 | 144 | 0.9 | 2.6 | 0.00 | 0.00 | 0.00 | 83 | 1012.6 |
| 20260509062506 | 64 | 126 | 0.0 | 1.7 | 0.00 | 0.00 | 0.00 | 83 | 1012.5 |
| 20260509062007 | 64 | 128 | 0.9 | 2.6 | 0.00 | 0.00 | 0.00 | 83 | 1012.6 |
| 20260509061506 | 64 | 153 | 0.9 | 1.7 | 0.00 | 0.00 | 0.00 | 83 | 1012.7 |
| 20260509061006 | 64 | 153 | 0.9 | 1.7 | 0.00 | 0.00 | 0.00 | 82 | 1012.8 |
| 20260509060506 | 64 | 153 | 0.9 | 1.7 | 0.00 | 0.00 | 0.00 | 82 | 1012.8 |
| 20260509060006 | 64 | 153 | 0.0 | 0.9 | 0.00 | 0.00 | 0.00 | 82 | 1012.8 |
| 20260509055507 | 64 | 153 | 0.0 | 1.7 | 0.00 | 0.00 | 0.00 | 82 | 1012.8 |
| 20260509055006 | 64 | 217 | 0.9 | 2.6 | 0.00 | 0.00 | 0.00 | 81 | 1013.1 |
| 20260509054506 | 64 | 222 | 0.0 | 0.9 | 0.00 | 0.00 | 0.00 | 81 | 1012.9 |
| 20260509053007 | 63 | 133 | 1.7 | 2.6 | 0.00 | 0.00 | 0.00 | 80 | 1013.0 |
| 20260509052506 | 63 | 157 | 0.0 | 0.9 | 0.00 | 0.00 | 0.00 | 79 | 1013.5 |
| 20260509052006 | 64 | 157 | 0.0 | 0.9 | 0.00 | 0.00 | 0.00 | 78 | 1013.5 |
| 20260509051006 | 63 | 157 | 0.0 | 1.7 | 0.00 | 0.00 | 0.00 | 78 | 1013.2 |
| 20260509050506 | 63 | 157 | 0.0 | 0.9 | 0.00 | 0.00 | 0.00 | 78 | 1013.3 |
| 20260509050006 | 63 | 157 | 0.0 | 0.9 | 0.00 | 0.00 | 0.00 | 79 | 1013.3 |
| 20260509045507 | 63 | 157 | 0.0 | 0.9 | 0.00 | 0.00 | 0.00 | 79 | 1013.7 |
| 20260509045006 | 63 | 157 | 0.0 | 0.0 | 0.00 | 0.00 | 0.00 | 79 | 1013.9 |
| 20260509044506 | 63 | 157 | 0.0 | 0.0 | 0.00 | 0.00 | 0.00 | 79 | 1014.0 |
| 20260509043506 | 63 | 157 | 0.0 | 0.9 | 0.00 | 0.00 | 0.00 | 77 | 1014.0 |
| 20260509043006 | 63 | 157 | 0.0 | 0.0 | 0.00 | 0.00 | 0.00 | 78 | 1014.0 |
| 20260509042506 | 63 | 157 | 0.0 | 0.0 | 0.00 | 0.00 | 0.00 | 78 | 1014.0 |
| 20260509042006 | 63 | 157 | 0.0 | 0.0 | 0.00 | 0.00 | 0.00 | 76 | 1014.0 |
| 20260509041506 | 63 | 157 | 0.0 | 0.0 | 0.00 | 0.00 | 0.00 | 77 | 1014.0 |
| 20260509040506 | 63 | 157 | 0.0 | 0.0 | 0.00 | 0.00 | 0.00 | 78 | 1014.1 |
| 20260509040006 | 63 | 157 | 0.0 | 0.9 | 0.00 | 0.00 | 0.00 | 78 | 1014.2 |
| 20260509035506 | 63 | 157 | 0.0 | 0.9 | 0.00 | 0.00 | 0.00 | 78 | 1014.1 |
| 20260509035006 | 64 | 157 | 0.0 | 0.0 | 0.00 | 0.00 | 0.00 | 78 | 1014.4 |
| 20260509034505 | 64 | 157 | 0.0 | 0.0 | 0.00 | 0.00 | 0.00 | 76 | 1014.2 |
| 20260509034006 | 64 | 157 | 0.0 | 0.0 | 0.00 | 0.00 | 0.00 | 76 | 1014.2 |
| 20260509033506 | 64 | 157 | 0.0 | 0.0 | 0.00 | 0.00 | 0.00 | 76 | 1014.1 |
| 20260509033006 | 64 | 157 | 0.0 | 0.0 | 0.00 | 0.00 | 0.00 | 76 | 1014.3 |
| 20260509032506 | 64 | 157 | 0.0 | 0.0 | 0.00 | 0.00 | 0.00 | 76 | 1014.5 |
| 20260509032006 | 64 | 157 | 0.0 | 0.0 | 0.00 | 0.00 | 0.00 | 76 | 1014.4 |
| 20260509031506 | 64 | 157 | 0.0 | 0.0 | 0.00 | 0.00 | 0.00 | 75 | 1014.7 |
| 20260509030005 | 64 | 157 | 0.0 | 0.0 | 0.00 | 0.00 | 0.00 | 75 | 1014.3 |
| 20260509025506 | 65 | 157 | 0.0 | 0.0 | 0.00 | 0.00 | 0.00 | 74 | 1014.2 |
| 20260509025006 | 65 | 157 | 0.0 | 0.0 | 0.00 | 0.00 | 0.00 | 73 | 1014.2 |
| 20260509024506 | 65 | 157 | 0.0 | 0.0 | 0.00 | 0.00 | 0.00 | 73 | 1013.9 |
| 20260509024005 | 65 | 157 | 0.0 | 0.0 | 0.00 | 0.00 | 0.00 | 72 | 1013.9 |
| 20260509023506 | 65 | 157 | 0.0 | 0.0 | 0.00 | 0.00 | 0.00 | 73 | 1014.1 |
| 20260509023006 | 65 | 157 | 0.0 | 0.0 | 0.00 | 0.00 | 0.00 | 73 | 1014.1 |
| 20260509022506 | 65 | 157 | 0.0 | 0.0 | 0.00 | 0.00 | 0.00 | 72 | 1014.3 |
| 20260509022006 | 65 | 157 | 0.0 | 0.0 | 0.00 | 0.00 | 0.00 | 72 | 1014.4 |
| 20260509021005 | 65 | 157 | 0.0 | 0.0 | 0.00 | 0.00 | 0.00 | 70 | 1014.5 |
| 20260509020005 | 66 | 157 | 0.0 | 0.0 | 0.00 | 0.00 | 0.00 | 70 | 1014.6 |
| 20260509015506 | 66 | 157 | 0.0 | 0.0 | 0.00 | 0.00 | 0.00 | 69 | 1014.5 |
| 20260509015006 | 66 | 157 | 0.0 | 0.0 | 0.00 | 0.00 | 0.00 | 68 | 1014.4 |
| 20260509014006 | 66 | 157 | 0.0 | 0.0 | 0.00 | 0.00 | 0.00 | 69 | 1014.4 |
| 20260509013506 | 66 | 103 | 0.0 | 0.0 | 0.00 | 0.00 | 0.00 | 68 | 1014.2 |
| 20260509013006 | 67 | 103 | 0.0 | 0.9 | 0.00 | 0.00 | 0.00 | 69 | 1014.3 |
| 20260509012005 | 67 | 99 | 0.0 | 1.7 | 0.00 | 0.00 | 0.00 | 68 | 1014.3 |
| 20260509011505 | 67 | 98 | 0.0 | 0.0 | 0.00 | 0.00 | 0.00 | 67 | 1014.3 |
| 20260509010505 | 67 | 316 | 0.0 | 0.9 | 0.00 | 0.00 | 0.00 | 67 | 1014.3 |
| 20260509010006 | 67 | 316 | 0.0 | 0.0 | 0.00 | 0.00 | 0.00 | 66 | 1014.5 |
| 20260509005506 | 68 | 316 | 0.0 | 0.0 | 0.00 | 0.00 | 0.00 | 65 | 1014.4 |
| 20260509005006 | 68 | 316 | 0.0 | 0.9 | 0.00 | 0.00 | 0.00 | 65 | 1014.2 |
| 20260509004506 | 68 | 297 | 0.0 | 0.9 | 0.00 | 0.00 | 0.00 | 64 | 1013.9 |
| 20260509004005 | 68 | 198 | 0.0 | 0.0 | 0.00 | 0.00 | 0.00 | 64 | 1013.8 |
| 20260509003505 | 68 | 198 | 0.9 | 0.9 | 0.00 | 0.00 | 0.00 | 63 | 1013.7 |
| 20260509003006 | 68 | 198 | 0.0 | 0.9 | 0.00 | 0.00 | 0.00 | 62 | 1014.0 |
| 20260509002506 | 68 | 198 | 0.0 | 0.9 | 0.00 | 0.00 | 0.00 | 62 | 1014.1 |
| 20260509001505 | 69 | 198 | 0.0 | 0.9 | 0.00 | 0.00 | 0.00 | 61 | 1014.0 |
| 20260509000506 | 69 | 198 | 0.0 | 0.9 | 0.00 | 0.00 | 0.00 | 60 | 1013.7 |
| 20260509000006 | 69 | 198 | 0.0 | 0.9 | 0.00 | 0.00 | 0.00 | 61 | 1013.6 |
| 20260508235005 | 70 | 198 | 0.0 | 0.9 | 0.00 | 0.00 | 0.00 | 60 | 1013.2 |
| 20260508234505 | 70 | 198 | 0.0 | 1.7 | 0.00 | 0.00 | 0.00 | 59 | 1013.3 |
| 20260508234005 | 70 | 198 | 0.0 | 0.9 | 0.00 | 0.00 | 0.00 | 58 | 1013.5 |
| 20260508233505 | 70 | 198 | 0.9 | 1.7 | 0.00 | 0.00 | 0.00 | 59 | 1013.3 |
| 20260508233005 | 70 | 198 | 0.0 | 0.9 | 0.00 | 0.00 | 0.00 | 59 | 1013.4 |
| 20260508232005 | 70 | 207 | 0.9 | 2.6 | 0.00 | 0.00 | 0.00 | 58 | 1013.7 |
| 20260508231505 | 70 | 176 | 0.0 | 1.7 | 0.00 | 0.00 | 0.00 | 58 | 1013.7 |
| 20260508230505 | 70 | 118 | 0.9 | 1.7 | 0.00 | 0.00 | 0.00 | 57 | 1013.6 |
| 20260508230005 | 70 | 116 | 0.9 | 2.6 | 0.00 | 0.00 | 0.00 | 56 | 1013.4 |
| 20260508225505 | 70 | 120 | 0.9 | 2.6 | 0.00 | 0.00 | 0.00 | 56 | 1013.4 |
| 20260508225006 | 71 | 136 | 0.9 | 2.6 | 0.00 | 0.00 | 0.00 | 56 | 1013.5 |
| 20260508224505 | 71 | 122 | 0.9 | 2.6 | 0.00 | 0.00 | 0.00 | 55 | 1013.5 |
| 20260508223505 | 71 | 114 | 0.9 | 4.3 | 0.00 | 0.00 | 0.00 | 57 | 1013.4 |
| 20260508223005 | 71 | 145 | 0.9 | 5.2 | 0.00 | 0.00 | 0.00 | 56 | 1013.5 |
| 20260508222005 | 71 | 149 | 0.9 | 4.3 | 0.00 | 0.00 | 0.00 | 55 | 1013.7 |
| 20260508221005 | 71 | 127 | 0.9 | 1.7 | 0.00 | 0.00 | 0.00 | 54 | 1013.6 |
| 20260508220505 | 71 | 148 | 1.7 | 2.6 | 0.00 | 0.00 | 0.00 | 53 | 1013.8 |
| 20260508220005 | 72 | 124 | 1.7 | 5.2 | 0.00 | 0.00 | 0.00 | 52 | 1013.8 |
| 20260508215005 | 72 | 127 | 1.7 | 2.6 | 0.00 | 0.00 | 0.00 | 53 | 1013.7 |
| 20260508214505 | 72 | 153 | 0.9 | 4.3 | 0.00 | 0.00 | 0.00 | 53 | 1013.6 |
| 20260508214005 | 72 | 182 | 0.9 | 2.6 | 0.00 | 0.00 | 0.00 | 52 | 1013.7 |
| 20260508212505 | 72 | 119 | 1.7 | 2.6 | 0.00 | 0.00 | 0.00 | 52 | 1013.6 |
| 20260508212005 | 72 | 143 | 1.7 | 2.6 | 0.00 | 0.00 | 0.00 | 52 | 1013.7 |
| 20260508211504 | 72 | 140 | 2.6 | 5.2 | 0.00 | 0.00 | 0.00 | 51 | 1013.5 |
| 20260508211005 | 72 | 140 | 0.9 | 2.6 | 0.00 | 0.00 | 0.00 | 52 | 1013.5 |
| 20260508210505 | 73 | 129 | 2.6 | 6.1 | 0.00 | 0.00 | 0.00 | 50 | 1013.4 |
| 20260508210005 | 73 | 133 | 2.6 | 6.1 | 0.00 | 0.00 | 0.00 | 49 | 1013.4 |
| 20260508205505 | 74 | 136 | 1.7 | 2.6 | 0.00 | 0.00 | 0.00 | 51 | 1013.4 |
| 20260508205005 | 74 | 144 | 1.7 | 7.8 | 0.00 | 0.00 | 0.00 | 50 | 1013.4 |
| 20260508204505 | 74 | 136 | 0.9 | 2.6 | 0.00 | 0.00 | 0.00 | 49 | 1013.4 |
| 20260508204005 | 74 | 100 | 1.7 | 4.3 | 0.00 | 0.00 | 0.00 | 50 | 1013.4 |
| 20260508203505 | 74 | 183 | 0.9 | 6.1 | 0.00 | 0.00 | 0.00 | 50 | 1013.4 |
| 20260508203005 | 74 | 174 | 0.9 | 5.2 | 0.00 | 0.00 | 0.00 | 47 | 1013.5 |
| 20260508202505 | 74 | 98 | 1.7 | 2.6 | 0.00 | 0.00 | 0.00 | 49 | 1013.7 |
| 20260508202004 | 74 | 134 | 0.9 | 2.6 | 0.00 | 0.00 | 0.00 | 48 | 1013.9 |
| 20260508201505 | 74 | 182 | 0.9 | 4.3 | 0.00 | 0.00 | 0.00 | 47 | 1014.0 |
| 20260508201005 | 74 | 141 | 1.7 | 2.6 | 0.00 | 0.00 | 0.00 | 47 | 1013.9 |
| 20260508200505 | 75 | 134 | 1.7 | 6.1 | 0.00 | 0.00 | 0.00 | 46 | 1013.9 |
| 20260508200004 | 75 | 124 | 1.7 | 2.6 | 0.00 | 0.00 | 0.00 | 47 | 1014.0 |
| 20260508195004 | 74 | 93 | 2.6 | 6.1 | 0.00 | 0.00 | 0.00 | 46 | 1014.0 |
| 20260508194505 | 74 | 67 | 2.6 | 7.0 | 0.00 | 0.00 | 0.00 | 46 | 1014.1 |
| 20260508194005 | 74 | 172 | 0.9 | 2.6 | 0.00 | 0.00 | 0.00 | 47 | 1014.3 |
| 20260508193004 | 74 | 100 | 1.7 | 7.0 | 0.00 | 0.00 | 0.00 | 47 | 1014.3 |
| 20260508191504 | 74 | 127 | 2.6 | 7.0 | 0.00 | 0.00 | 0.00 | 49 | 1014.3 |
| 20260508191004 | 73 | 244 | 2.6 | 6.1 | 0.00 | 0.00 | 0.00 | 46 | 1014.4 |
| 20260508190005 | 74 | 154 | 1.7 | 5.2 | 0.00 | 0.00 | 0.00 | 46 | 1014.6 |
| 20260508185505 | 73 | 100 | 0.9 | 6.1 | 0.00 | 0.00 | 0.00 | 49 | 1014.5 |
| 20260508185005 | 73 | 137 | 2.6 | 4.3 | 0.00 | 0.00 | 0.00 | 46 | 1014.9 |
| 20260508184504 | 74 | 232 | 2.6 | 5.2 | 0.00 | 0.00 | 0.00 | 47 | 1015.2 |
| 20260508184005 | 74 | 91 | 1.7 | 4.3 | 0.00 | 0.00 | 0.00 | 45 | 1015.2 |
| 20260508183504 | 74 | 171 | 1.7 | 4.3 | 0.00 | 0.00 | 0.00 | 48 | 1015.3 |
| 20260508183004 | 74 | 218 | 1.7 | 5.2 | 0.00 | 0.00 | 0.00 | 46 | 1015.4 |
| 20260508182005 | 74 | 142 | 0.9 | 1.7 | 0.00 | 0.00 | 0.00 | 47 | 1015.3 |
| 20260508181505 | 73 | 45 | 0.0 | 4.3 | 0.00 | 0.00 | 0.00 | 49 | 1015.5 |
| 20260508180504 | 74 | 142 | 2.6 | 6.1 | 0.00 | 0.00 | 0.00 | 47 | 1015.5 |
| 20260508180005 | 73 | 141 | 2.6 | 5.2 | 0.00 | 0.00 | 0.00 | 49 | 1015.7 |
| 20260508175505 | 73 | 127 | 2.6 | 7.0 | 0.00 | 0.00 | 0.00 | 48 | 1015.7 |
| 20260508174004 | 73 | 205 | 0.9 | 5.2 | 0.00 | 0.00 | 0.00 | 48 | 1015.5 |
| 20260508173505 | 73 | 137 | 1.7 | 2.6 | 0.00 | 0.00 | 0.00 | 48 | 1015.7 |
| 20260508173005 | 73 | 114 | 4.3 | 8.7 | 0.00 | 0.00 | 0.00 | 49 | 1015.6 |
| 20260508172504 | 73 | 206 | 2.6 | 5.2 | 0.00 | 0.00 | 0.00 | 49 | 1015.9 |
| 20260508172004 | 72 | 221 | 1.7 | 2.6 | 0.00 | 0.00 | 0.00 | 49 | 1016.1 |
| 20260508171505 | 72 | 84 | 0.9 | 2.6 | 0.00 | 0.00 | 0.00 | 50 | 1016.3 |
| 20260508171004 | 72 | 137 | 1.7 | 5.2 | 0.00 | 0.00 | 0.00 | 50 | 1016.4 |
| 20260508170504 | 72 | 59 | 1.7 | 5.2 | 0.00 | 0.01 | 0.00 | 49 | 1016.3 |
| 20260508170005 | 72 | 190 | 0.9 | 5.2 | 0.00 | 0.01 | 0.00 | 50 | 1016.4 |
| 20260508165004 | 72 | 125 | 1.7 | 2.6 | 0.00 | 0.01 | 0.00 | 50 | 1016.4 |
| 20260508164504 | 71 | 104 | 1.7 | 5.2 | 0.00 | 0.01 | 0.00 | 48 | 1016.6 |
| 20260508163504 | 71 | 86 | 1.7 | 8.7 | 0.00 | 0.02 | 0.00 | 51 | 1016.7 |
| 20260508163004 | 71 | 141 | 1.7 | 6.1 | 0.00 | 0.02 | 0.00 | 50 | 1016.9 |
| 20260508162004 | 70 | 131 | 0.9 | 4.3 | 0.00 | 0.02 | 0.00 | 50 | 1016.7 |
| 20260508161504 | 71 | 109 | 2.6 | 4.3 | 0.00 | 0.02 | 0.00 | 49 | 1016.8 |
| 20260508161004 | 70 | 66 | 0.9 | 1.7 | 0.00 | 0.02 | 0.00 | 51 | 1016.9 |
| 20260508160504 | 69 | 297 | 0.9 | 2.6 | 0.00 | 0.04 | 0.00 | 51 | 1016.9 |
| 20260508160004 | 69 | 137 | 3.5 | 7.0 | 0.00 | 0.06 | 0.00 | 49 | 1017.0 |
| 20260508154504 | 69 | 33 | 0.9 | 2.6 | 0.00 | 0.09 | 0.00 | 51 | 1017.0 |
| 20260508154004 | 69 | 131 | 0.9 | 5.2 | 0.00 | 0.09 | 0.00 | 50 | 1017.1 |
| 20260508153504 | 69 | 113 | 3.5 | 7.8 | 0.00 | 0.10 | 0.00 | 49 | 1017.1 |
| 20260508153004 | 70 | 109 | 1.7 | 6.1 | 0.00 | 0.10 | 0.00 | 50 | 1017.2 |
| 20260508152504 | 70 | 129 | 3.5 | 8.7 | 0.00 | 0.10 | 0.00 | 48 | 1017.4 |
| 20260508152004 | 71 | 121 | 0.9 | 2.6 | 0.00 | 0.10 | 0.00 | 50 | 1017.4 |
| 20260508151504 | 70 | 52 | 0.9 | 2.6 | 0.00 | 0.10 | 0.00 | 49 | 1017.4 |
| 20260508151004 | 70 | 125 | 1.7 | 2.6 | 0.00 | 0.11 | 0.00 | 50 | 1017.4 |
| 20260508150504 | 69 | 172 | 1.7 | 6.1 | 0.00 | 0.12 | 0.00 | 50 | 1017.4 |
| 20260508150005 | 69 | 342 | 0.9 | 2.6 | 0.00 | 0.13 | 0.00 | 48 | 1017.3 |
| 20260508145504 | 69 | 57 | 1.7 | 6.1 | 0.00 | 0.15 | 0.00 | 52 | 1017.5 |
| 20260508145004 | 69 | 119 | 4.3 | 8.7 | 0.00 | 0.22 | 0.00 | 49 | 1017.5 |
| 20260508144504 | 69 | 98 | 2.6 | 7.8 | 0.00 | 0.42 | 0.00 | 47 | 1017.5 |
| 20260508143504 | 69 | 90 | 2.6 | 6.1 | 0.00 | 0.46 | 0.00 | 49 | 1017.6 |
| 20260508143004 | 69 | 317 | 0.9 | 2.6 | 0.00 | 0.46 | 0.00 | 49 | 1017.6 |
| 20260508142504 | 69 | 33 | 1.7 | 4.3 | 0.00 | 0.46 | 0.00 | 51 | 1017.7 |
| 20260508142005 | 68 | 14 | 1.7 | 6.1 | 0.00 | 0.46 | 0.00 | 52 | 1017.6 |
| 20260508141504 | 68 | 51 | 1.7 | 7.8 | 0.00 | 0.48 | 0.00 | 53 | 1017.6 |
| 20260508141004 | 68 | 62 | 1.7 | 7.0 | 0.00 | 0.49 | 0.00 | 53 | 1017.5 |
| 20260508135003 | 66 | 234 | 0.9 | 2.6 | 0.00 | 0.62 | 0.00 | 60 | 1017.5 |
| 20260508134504 | 66 | 94 | 1.7 | 6.1 | 0.00 | 0.63 | 0.00 | 60 | 1017.5 |
| 20260508134004 | 65 | 36 | 0.9 | 2.6 | 0.00 | 0.64 | 0.00 | 63 | 1017.6 |
| 20260508133504 | 65 | 341 | 1.7 | 4.3 | 0.00 | 0.65 | 0.00 | 64 | 1017.6 |
| 20260508133004 | 65 | 100 | 0.9 | 4.3 | 0.00 | 0.66 | 0.00 | 65 | 1017.6 |
| 20260508132504 | 64 | 314 | 1.7 | 2.6 | 0.00 | 0.67 | 0.00 | 66 | 1017.7 |
| 20260508132003 | 64 | 213 | 0.0 | 2.6 | 0.00 | 0.68 | 0.00 | 70 | 1017.5 |
| 20260508131504 | 64 | 329 | 0.9 | 1.7 | 0.00 | 0.69 | 0.00 | 70 | 1017.3 |
| 20260508131003 | 63 | 177 | 0.0 | 4.3 | 0.00 | 0.70 | 0.00 | 72 | 1017.1 |
| 20260508130504 | 63 | 323 | 1.7 | 4.3 | 0.00 | 0.71 | 0.00 | 72 | 1016.9 |
| 20260508130004 | 63 | 159 | 0.9 | 2.6 | 0.00 | 0.72 | 0.00 | 73 | 1017.0 |
| 20260508124507 | 61 | 341 | 0.9 | 2.6 | 0.00 | 0.72 | 0.00 | 79 | 1016.8 |
| 20260508124007 | 61 | 311 | 0.9 | 2.6 | 0.00 | 0.72 | 0.00 | 80 | 1016.7 |
| 20260508123508 | 60 | 333 | 0.9 | 2.6 | 0.00 | 0.72 | 0.00 | 82 | 1016.6 |
| 20260508122008 | 59 | 290 | 0.0 | 1.7 | 0.00 | 0.72 | 0.00 | 86 | 1016.5 |
| 20260508121507 | 59 | 128 | 0.0 | 0.9 | 0.00 | 0.72 | 0.00 | 86 | 1016.5 |
| 20260508121007 | 59 | 38 | 0.0 | 0.9 | 0.00 | 0.72 | 0.00 | 87 | 1016.4 |
| 20260508120507 | 58 | 5 | 0.0 | 0.9 | 0.00 | 0.72 | 0.00 | 87 | 1016.3 |
| 20260508120007 | 58 | 5 | 0.0 | 0.9 | 0.00 | 0.72 | 0.00 | 88 | 1016.2 |
| 20260508115507 | 58 | 5 | 0.0 | 0.9 | 0.00 | 0.72 | 0.00 | 89 | 1016.1 |
| 20260508114507 | 57 | 5 | 0.0 | 0.9 | 0.00 | 0.72 | 0.00 | 90 | 1016.0 |
| 20260508114007 | 57 | 5 | 0.9 | 1.7 | 0.00 | 0.72 | 0.00 | 90 | 1015.9 |
| 20260508113507 | 56 | 5 | 0.0 | 0.9 | 0.00 | 0.72 | 0.00 | 91 | 1015.9 |
| 20260508112508 | 56 | 10 | 0.0 | 0.0 | 0.00 | 0.72 | 0.00 | 91 | 1015.7 |
| 20260508112007 | 56 | 10 | 0.0 | 0.0 | 0.00 | 0.72 | 0.00 | 91 | 1015.5 |
| 20260508111507 | 55 | 10 | 0.0 | 0.9 | 0.00 | 0.72 | 0.00 | 91 | 1015.4 |
| 20260508111007 | 55 | 10 | 0.0 | 0.0 | 0.00 | 0.72 | 0.00 | 91 | 1015.4 |
| 20260508110507 | 55 | 10 | 0.0 | 0.0 | 0.00 | 0.72 | 0.00 | 91 | 1015.4 |
| 20260508110007 | 55 | 10 | 0.0 | 0.0 | 0.00 | 0.72 | 0.00 | 91 | 1015.4 |
| 20260508105507 | 55 | 10 | 0.0 | 0.0 | 0.00 | 0.72 | 0.00 | 90 | 1015.2 |
| 20260508105007 | 55 | 10 | 0.0 | 0.0 | 0.00 | 0.73 | 0.00 | 90 | 1015.2 |
| 20260508104507 | 55 | 10 | 0.0 | 0.0 | 0.00 | 0.74 | 0.00 | 90 | 1015.1 |
| 20260508104007 | 55 | 10 | 0.0 | 0.0 | 0.00 | 0.75 | 0.00 | 90 | 1015.1 |
| 20260508103007 | 56 | 10 | 0.0 | 0.0 | 0.00 | 0.75 | 0.00 | 89 | 1015.0 |
| 20260508102506 | 56 | 10 | 0.0 | 0.0 | 0.00 | 0.76 | 0.00 | 89 | 1014.7 |
| 20260508101507 | 56 | 10 | 0.0 | 0.0 | 0.00 | 0.76 | 0.00 | 89 | 1014.7 |
| 20260508100507 | 56 | 10 | 0.0 | 0.0 | 0.00 | 0.76 | 0.00 | 88 | 1014.6 |
| 20260508100007 | 56 | 10 | 0.0 | 0.0 | 0.00 | 0.76 | 0.00 | 87 | 1014.7 |
| 20260508095507 | 56 | 10 | 0.0 | 0.0 | 0.00 | 0.76 | 0.00 | 87 | 1014.5 |
| 20260508095006 | 56 | 10 | 0.0 | 0.0 | 0.00 | 0.76 | 0.00 | 87 | 1014.2 |
| 20260508094507 | 56 | 10 | 0.0 | 0.0 | 0.00 | 0.76 | 0.00 | 87 | 1014.1 |
| 20260508094007 | 57 | 10 | 0.0 | 0.0 | 0.00 | 0.76 | 0.00 | 87 | 1014.0 |
| 20260508093507 | 57 | 10 | 0.0 | 0.0 | 0.00 | 0.76 | 0.00 | 86 | 1014.0 |
| 20260508093007 | 57 | 10 | 0.0 | 0.9 | 0.00 | 0.76 | 0.00 | 86 | 1014.0 |
| 20260508092007 | 57 | 10 | 0.0 | 0.9 | 0.00 | 0.76 | 0.00 | 86 | 1013.8 |
| 20260508091507 | 57 | 10 | 0.0 | 0.0 | 0.00 | 0.76 | 0.00 | 86 | 1014.0 |
| 20260508091007 | 57 | 10 | 0.0 | 0.0 | 0.00 | 0.76 | 0.00 | 86 | 1013.7 |
| 20260508090507 | 57 | 10 | 0.0 | 0.0 | 0.00 | 0.76 | 0.00 | 85 | 1013.6 |
| 20260508085507 | 57 | 352 | 0.9 | 2.6 | 0.00 | 0.76 | 0.00 | 85 | 1013.6 |
| 20260508085007 | 57 | 15 | 0.0 | 0.9 | 0.00 | 0.76 | 0.00 | 85 | 1013.6 |
| 20260508084507 | 57 | 0 | 0.0 | 0.9 | 0.00 | 0.77 | 0.00 | 84 | 1013.6 |
| 20260508084006 | 57 | 0 | 0.0 | 0.9 | 0.00 | 0.78 | 0.00 | 84 | 1013.6 |
| 20260508083506 | 57 | 355 | 0.0 | 1.7 | 0.00 | 0.81 | 0.00 | 84 | 1013.4 |
| 20260508083007 | 58 | 0 | 0.0 | 0.9 | 0.00 | 0.83 | 0.00 | 84 | 1013.4 |
| 20260508082507 | 58 | 9 | 0.0 | 1.7 | 0.00 | 0.84 | 0.00 | 83 | 1013.5 |
| 20260508082007 | 58 | 84 | 0.0 | 0.9 | 0.00 | 0.85 | 0.00 | 83 | 1013.5 |
| 20260508081507 | 58 | 123 | 0.0 | 0.9 | 0.00 | 0.86 | 0.00 | 83 | 1013.5 |
| 20260508080506 | 58 | 354 | 0.0 | 0.9 | 0.00 | 0.88 | 0.00 | 82 | 1013.3 |
| 20260508080006 | 58 | 342 | 0.9 | 1.7 | 0.00 | 0.90 | 0.00 | 82 | 1013.3 |
| 20260508075506 | 58 | 337 | 0.0 | 1.7 | 0.00 | 0.90 | 0.00 | 81 | 1013.3 |
| 20260508075007 | 59 | 319 | 0.9 | 1.7 | 0.00 | 0.91 | 0.00 | 81 | 1013.4 |
| 20260508074507 | 59 | 321 | 0.0 | 1.7 | 0.00 | 0.92 | 0.00 | 80 | 1013.3 |
| 20260508074007 | 59 | 351 | 0.9 | 2.6 | 0.00 | 0.92 | 0.00 | 80 | 1013.3 |
| 20260508073506 | 59 | 331 | 1.7 | 2.6 | 0.00 | 0.93 | 0.00 | 79 | 1013.3 |
| 20260508073006 | 59 | 332 | 1.7 | 2.6 | 0.00 | 0.94 | 0.00 | 79 | 1013.3 |
| 20260508072507 | 59 | 324 | 1.7 | 2.6 | 0.00 | 0.94 | 0.00 | 79 | 1013.4 |
| 20260508072007 | 59 | 273 | 0.9 | 2.6 | 0.00 | 0.94 | 0.00 | 79 | 1013.3 |
| 20260508071006 | 60 | 324 | 1.7 | 2.6 | 0.00 | 0.95 | 0.00 | 78 | 1013.6 |
| 20260508070507 | 60 | 331 | 0.9 | 2.6 | 0.00 | 0.95 | 0.00 | 78 | 1013.4 |
| 20260508070006 | 60 | 336 | 0.9 | 1.7 | 0.00 | 0.96 | 0.00 | 78 | 1013.4 |
| 20260508065506 | 60 | 8 | 0.9 | 2.6 | 0.00 | 0.96 | 0.00 | 78 | 1013.5 |
| 20260508065006 | 60 | 336 | 0.0 | 1.7 | 0.00 | 0.97 | 0.00 | 77 | 1013.3 |